Time;durP1;ratioP1;P1;durP2;ratioP2;P2;SDS_P1;SDS_P2;PMS_P1;PMS_P2;Temp;Humidity;BMP_temperature;BMP_pressure;BME280_temperature;BME280_humidity;BME280_pressure;Samples;Min_cycle;Max_cycle;Signal;HPM_P1;HPM_P2
2023/03/17 00:01:07;;;;;;;5.38;2.65;;;9.20;65.90;;;;;;9180782;19;20484;-62
2023/03/17 00:04:14;;;;;;;5.90;2.08;;;9.20;65.90;;;;;;9181927;19;20015;-62
2023/03/17 00:07:18;;;;;;;4.20;2.13;;;9.20;65.90;;;;;;9179786;19;20090;-62
2023/03/17 00:10:26;;;;;;;5.50;2.20;;;9.20;65.90;;;;;;9178081;19;20356;-62
2023/03/17 00:13:31;;;;;;;3.17;1.98;;;9.20;66.00;;;;;;9179562;19;20508;-63
2023/03/17 00:16:42;;;;;;;4.10;2.30;;;9.10;65.90;;;;;;9179894;19;20018;-63
2023/03/17 00:19:46;;;;;;;5.68;2.20;;;9.10;66.00;;;;;;9180133;19;20037;-63
2023/03/17 00:22:53;;;;;;;5.97;2.40;;;9.10;66.00;;;;;;9179268;19;20134;-62
2023/03/17 00:25:57;;;;;;;5.22;2.22;;;9.10;66.00;;;;;;9180176;19;20010;-63
2023/03/17 00:29:04;;;;;;;3.67;2.42;;;9.10;66.00;;;;;;9178242;19;20007;-63
2023/03/17 00:32:18;;;;;;;5.03;2.05;;;9.10;66.00;;;;;;9180049;19;20014;-63
2023/03/17 00:35:25;;;;;;;5.50;2.38;;;9.00;65.90;;;;;;9179458;19;20025;-63
2023/03/17 00:38:30;;;;;;;3.60;1.90;;;9.00;65.90;;;;;;9179521;19;20019;-62
2023/03/17 00:41:37;;;;;;;5.13;2.90;;;9.00;66.00;;;;;;9173577;19;20018;-63
2023/03/17 00:44:43;;;;;;;4.05;2.38;;;9.00;66.00;;;;;;9179229;19;20074;-62
2023/03/17 00:47:54;;;;;;;5.43;3.22;;;8.90;66.00;;;;;;9178839;19;20033;-63
2023/03/17 00:50:58;;;;;;;6.85;2.50;;;8.90;66.00;;;;;;9173928;19;20011;-63
2023/03/17 00:54:07;;;;;;;4.47;2.33;;;8.90;66.10;;;;;;9178413;19;20046;-63
2023/03/17 00:57:12;;;;;;;4.43;2.28;;;8.90;66.20;;;;;;9173759;19;20024;-63
2023/03/17 01:00:23;;;;;;;7.43;2.28;;;8.90;66.10;;;;;;9178671;19;20014;-63
2023/03/17 01:03:29;;;;;;;4.53;2.47;;;8.80;66.10;;;;;;9178202;19;20010;-63
2023/03/17 01:06:36;;;;;;;3.92;2.38;;;8.80;66.10;;;;;;9178075;19;20015;-63
2023/03/17 01:09:42;;;;;;;8.75;3.30;;;8.80;66.20;;;;;;9174546;19;20015;-63
2023/03/17 01:12:49;;;;;;;3.03;2.10;;;8.70;66.20;;;;;;9178110;19;20013;-63
2023/03/17 01:15:55;;;;;;;3.80;2.40;;;8.70;66.20;;;;;;9178237;19;20365;-63
2023/03/17 01:19:04;;;;;;;4.30;2.25;;;8.70;66.20;;;;;;9177703;19;20019;-63
2023/03/17 01:22:08;;;;;;;5.88;3.00;;;8.60;66.20;;;;;;9178234;19;20021;-62
2023/03/17 01:25:15;;;;;;;5.65;2.33;;;8.60;66.20;;;;;;9177797;19;20014;-63
2023/03/17 01:28:22;;;;;;;5.78;2.08;;;8.60;66.20;;;;;;9177678;19;20018;-63
2023/03/17 01:31:28;;;;;;;5.97;2.50;;;8.50;66.20;;;;;;9173391;19;20011;-62
2023/03/17 01:34:34;;;;;;;4.90;2.20;;;8.50;66.30;;;;;;9181641;19;20033;-63
2023/03/17 01:37:41;;;;;;;5.75;2.42;;;8.50;66.30;;;;;;9189238;19;20077;-62
2023/03/17 01:40:46;;;;;;;4.40;2.25;;;8.50;66.30;;;;;;9193953;19;20010;-63
2023/03/17 01:43:52;;;;;;;7.57;2.83;;;8.50;66.30;;;;;;9195011;19;20355;-63
2023/03/17 01:46:56;;;;;;;;;;;8.50;66.30;;;;;;9195906;19;20523;-63
2023/03/17 01:50:07;;;;;;;6.40;2.40;;;8.40;66.30;;;;;;9193064;19;19923;-63
2023/03/17 01:53:12;;;;;;;4.53;2.40;;;8.40;66.30;;;;;;9193812;19;20018;-63
2023/03/17 01:56:19;;;;;;;5.38;2.28;;;8.40;66.30;;;;;;9193992;19;20034;-62
2023/03/17 01:59:29;;;;;;;4.70;2.60;;;8.30;66.30;;;;;;9187047;19;20491;-62
2023/03/17 02:02:38;;;;;;;7.05;2.40;;;8.30;66.40;;;;;;9194166;19;20019;-62
2023/03/17 02:05:45;;;;;;;6.10;2.17;;;8.30;66.40;;;;;;9194112;19;20011;-62
2023/03/17 02:08:52;;;;;;;4.90;2.30;;;8.30;66.40;;;;;;9190282;19;20401;-61
2023/03/17 02:11:58;;;;;;;4.70;2.45;;;8.30;66.50;;;;;;9188590;19;20037;-61
2023/03/17 02:15:05;;;;;;;5.25;2.20;;;8.20;66.40;;;;;;9191271;19;20082;-62
2023/03/17 02:18:10;;;;;;;6.85;2.30;;;8.30;66.50;;;;;;9193820;19;20014;-62
2023/03/17 02:21:41;;;;;;;2.80;2.00;;;8.20;66.40;;;;;;9193459;19;20487;-62
2023/03/17 02:24:49;;;;;;;5.50;2.35;;;8.20;66.50;;;;;;9193176;19;20057;-62
2023/03/17 02:28:00;;;;;;;4.22;2.60;;;8.20;66.50;;;;;;9192927;19;20547;-62
2023/03/17 02:31:05;;;;;;;6.75;2.17;;;8.20;66.50;;;;;;9190377;19;20014;-62
2023/03/17 02:34:11;;;;;;;9.15;2.30;;;8.20;66.50;;;;;;9189135;19;20018;-62
2023/03/17 02:37:17;;;;;;;;;;;8.20;66.50;;;;;;9193171;19;20022;-62
2023/03/17 02:40:23;;;;;;;3.75;2.05;;;8.20;66.50;;;;;;9191907;19;19925;-62
2023/03/17 02:43:27;;;;;;;6.13;2.20;;;8.20;66.50;;;;;;9192264;19;20018;-62
2023/03/17 02:46:35;;;;;;;3.20;2.10;;;8.20;66.50;;;;;;9184669;19;20025;-62
2023/03/17 02:49:40;;;;;;;3.83;2.20;;;8.20;66.60;;;;;;9182179;19;20021;-62
2023/03/17 02:52:48;;;;;;;4.63;2.28;;;8.20;66.60;;;;;;9182287;19;20383;-62
2023/03/17 02:55:52;;;;;;;2.78;1.92;;;8.10;66.50;;;;;;9182196;19;20070;-62
2023/03/17 02:58:58;;;;;;;9.23;1.98;;;8.20;66.60;;;;;;9177396;19;20022;-62
2023/03/17 03:02:02;;;;;;;;;;;8.10;66.60;;;;;;9183265;19;20038;-62
2023/03/17 03:05:09;;;;;;;5.68;2.15;;;8.10;66.60;;;;;;9181957;19;19927;-62
2023/03/17 03:08:16;;;;;;;2.50;2.00;;;8.10;66.60;;;;;;9181345;19;20022;-62
2023/03/17 03:11:22;;;;;;;3.85;2.05;;;8.10;66.60;;;;;;9179925;19;20767;-62
2023/03/17 03:14:26;;;;;;;3.63;2.20;;;8.10;66.70;;;;;;9181446;19;20061;-62
2023/03/17 03:17:31;;;;;;;4.32;2.45;;;8.00;66.60;;;;;;9181640;19;20018;-63
2023/03/17 03:20:35;;;;;;;3.47;2.15;;;8.00;66.70;;;;;;9181272;19;20017;-63
2023/03/17 03:23:43;;;;;;;4.07;2.00;;;8.00;66.70;;;;;;9181734;19;20019;-63
2023/03/17 03:26:47;;;;;;;2.67;1.88;;;8.00;66.70;;;;;;9179854;19;20015;-63
2023/03/17 03:29:53;;;;;;;4.55;2.40;;;8.00;66.80;;;;;;9178454;19;20021;-63
2023/03/17 03:32:57;;;;;;;5.55;2.33;;;8.00;66.80;;;;;;9182024;19;20021;-62
2023/03/17 03:36:04;;;;;;;3.30;2.15;;;8.00;66.80;;;;;;9181486;19;20010;-62
2023/03/17 03:39:10;;;;;;;6.50;2.85;;;8.00;66.80;;;;;;9181517;19;20018;-62
2023/03/17 03:42:19;;;;;;;7.07;2.50;;;7.90;66.80;;;;;;9181408;19;20006;-62
2023/03/17 03:45:23;;;;;;;3.50;2.40;;;7.90;66.80;;;;;;9179240;19;20403;-63
2023/03/17 03:48:29;;;;;;;6.32;2.53;;;7.90;66.80;;;;;;9181494;19;20022;-63
2023/03/17 03:51:34;;;;;;;9.32;2.33;;;8.00;66.90;;;;;;9178172;19;20352;-63
2023/03/17 03:54:42;;;;;;;4.45;2.05;;;7.90;66.90;;;;;;9180831;19;20018;-63
2023/03/17 03:57:46;;;;;;;7.45;2.40;;;7.90;66.90;;;;;;9172875;19;20010;-62
2023/03/17 04:00:52;;;;;;;4.95;2.15;;;7.90;66.90;;;;;;9180680;19;20018;-62
2023/03/17 04:04:03;;;;;;;3.72;2.17;;;7.90;67.50;;;;;;9178918;19;20042;-63
2023/03/17 04:07:09;;;;;;;4.13;2.22;;;7.90;67.00;;;;;;9179477;19;20014;-63
2023/03/17 04:10:16;;;;;;;4.28;1.88;;;7.90;67.00;;;;;;9177658;19;20037;-63
2023/03/17 04:13:22;;;;;;;2.97;1.75;;;7.90;67.00;;;;;;9178467;19;20497;-63
2023/03/17 04:16:27;;;;;;;4.55;2.15;;;7.90;67.00;;;;;;9180038;19;20013;-63
2023/03/17 04:19:32;;;;;;;5.03;2.40;;;7.90;67.00;;;;;;9179951;19;20014;-62
2023/03/17 04:22:36;;;;;;;;;;;7.90;67.00;;;;;;9180761;19;20007;-63
2023/03/17 04:25:44;;;;;;;4.47;2.38;;;7.90;67.10;;;;;;9176369;19;19926;-63
2023/03/17 04:28:48;;;;;;;6.82;2.28;;;7.90;67.00;;;;;;9179504;19;20089;-63
2023/03/17 04:31:54;;;;;;;4.25;2.05;;;7.90;67.10;;;;;;9175475;19;20018;-63
2023/03/17 04:34:59;;;;;;;11.40;1.90;;;7.90;67.10;;;;;;9178078;19;20018;-63
2023/03/17 04:38:05;;;;;;;3.92;2.08;;;7.90;67.10;;;;;;9179317;19;20014;-63
2023/03/17 04:41:11;;;;;;;2.60;2.13;;;7.90;67.10;;;;;;9177557;19;20011;-62
2023/03/17 04:44:17;;;;;;;7.90;2.15;;;8.00;67.10;;;;;;9178979;19;20519;-63
2023/03/17 04:47:21;;;;;;;2.95;1.92;;;8.00;67.10;;;;;;9178783;19;20033;-63
2023/03/17 04:50:27;;;;;;;4.90;2.38;;;8.00;67.10;;;;;;9177696;19;20018;-63
2023/03/17 04:53:31;;;;;;;6.10;2.28;;;8.00;67.10;;;;;;9178252;19;20030;-63
2023/03/17 04:56:39;;;;;;;3.33;1.90;;;8.00;67.70;;;;;;9176474;19;20021;-63
2023/03/17 04:59:43;;;;;;;3.30;2.00;;;8.10;67.20;;;;;;9173068;19;20037;-63
2023/03/17 05:02:49;;;;;;;3.55;2.00;;;8.10;67.20;;;;;;9178607;19;20018;-62
2023/03/17 05:05:54;;;;;;;4.07;2.13;;;8.10;67.10;;;;;;9178117;19;20450;-63
2023/03/17 05:09:00;;;;;;;4.00;2.17;;;8.10;67.10;;;;;;9172359;19;20363;-64
2023/03/17 05:12:07;;;;;;;;;;;8.10;67.10;;;;;;9174199;19;20530;-63
2023/03/17 05:15:13;;;;;;;3.80;2.25;;;8.10;67.10;;;;;;9177644;19;20268;-63
2023/03/17 05:18:17;;;;;;;6.32;2.05;;;8.10;67.10;;;;;;9178473;19;20022;-63
2023/03/17 05:21:23;;;;;;;9.90;2.13;;;8.10;67.10;;;;;;9175337;19;20014;-63
2023/03/17 05:24:27;;;;;;;;;;;8.10;67.10;;;;;;9179366;19;20014;-63
2023/03/17 05:27:35;;;;;;;3.95;2.13;;;8.10;67.10;;;;;;9177965;19;20320;-63
2023/03/17 05:30:40;;;;;;;3.28;2.10;;;8.10;67.10;;;;;;9176673;19;20011;-63
2023/03/17 05:33:47;;;;;;;5.22;1.98;;;8.10;67.20;;;;;;9175127;19;20011;-63
2023/03/17 05:36:51;;;;;;;3.95;2.13;;;8.00;67.10;;;;;;9177584;19;20010;-63
2023/03/17 05:39:58;;;;;;;6.53;1.95;;;8.00;67.10;;;;;;9177101;19;20015;-62
2023/03/17 05:43:06;;;;;;;4.53;1.90;;;8.00;67.10;;;;;;9177620;19;20047;-62
2023/03/17 05:46:12;;;;;;;4.18;1.80;;;8.00;67.10;;;;;;9176755;19;20018;-63
2023/03/17 05:49:17;;;;;;;5.25;2.30;;;8.00;67.10;;;;;;9176338;19;20401;-63
2023/03/17 05:52:23;;;;;;;4.60;1.85;;;8.00;67.20;;;;;;9172765;19;20527;-63
2023/03/17 05:55:27;;;;;;;4.40;2.05;;;8.00;67.20;;;;;;9175443;19;20471;-63
2023/03/17 05:58:35;;;;;;;4.65;2.10;;;7.90;67.20;;;;;;9169878;19;20010;-63
2023/03/17 06:01:39;;;;;;;4.00;1.98;;;7.90;67.20;;;;;;9175939;19;20014;-62
2023/03/17 06:04:45;;;;;;;5.25;1.98;;;7.90;67.20;;;;;;9167407;19;20010;-63
2023/03/17 06:07:49;;;;;;;3.95;2.15;;;7.90;67.30;;;;;;9166806;19;20021;-62
2023/03/17 06:11:01;;;;;;;6.40;2.30;;;7.90;67.30;;;;;;9164609;19;20029;-62
2023/03/17 06:14:07;;;;;;;3.13;1.98;;;7.90;67.30;;;;;;9166411;19;20027;-63
2023/03/17 06:17:13;;;;;;;6.43;2.50;;;7.90;67.30;;;;;;9158339;19;20376;-63
2023/03/17 06:20:17;;;;;;;;;;;7.90;67.30;;;;;;9171025;19;20415;-63
2023/03/17 06:23:23;;;;;;;4.97;2.30;;;7.90;67.40;;;;;;9175947;19;19915;-63
2023/03/17 06:26:28;;;;;;;4.65;2.80;;;7.90;67.30;;;;;;9182495;19;20475;-62
2023/03/17 06:29:36;;;;;;;5.88;2.35;;;7.90;67.40;;;;;;9183784;19;20010;-62
2023/03/17 06:32:40;;;;;;;5.30;2.00;;;8.00;67.50;;;;;;9180536;19;20045;-63
2023/03/17 06:35:46;;;;;;;15.10;1.95;;;7.90;67.50;;;;;;9182770;19;20007;-63
2023/03/17 06:38:50;;;;;;;1.95;1.73;;;8.00;67.50;;;;;;9183388;19;20030;-63
2023/03/17 06:41:56;;;;;;;7.20;2.25;;;8.10;67.70;;;;;;9183093;19;20022;-62
2023/03/17 06:45:02;;;;;;;;;;;8.20;67.70;;;;;;9183854;19;20011;-63
2023/03/17 06:48:08;;;;;;;3.83;1.77;;;8.20;67.60;;;;;;9181369;19;19930;-63
2023/03/17 06:51:12;;;;;;;;;;;8.30;67.60;;;;;;9182362;19;20017;-63
2023/03/17 06:54:19;;;;;;;4.15;2.05;;;8.40;67.60;;;;;;9182825;19;19918;-63
2023/03/17 06:57:23;;;;;;;4.10;2.10;;;8.40;67.60;;;;;;9177286;19;20809;-63
2023/03/17 07:00:31;;;;;;;3.20;2.00;;;8.50;67.70;;;;;;9180811;19;20011;-62
2023/03/17 07:03:36;;;;;;;4.00;1.77;;;8.60;67.60;;;;;;9180930;19;20463;-62
2023/03/17 07:06:43;;;;;;;5.07;2.25;;;8.70;67.70;;;;;;9181270;19;20424;-63
2023/03/17 07:09:47;;;;;;;;;;;8.80;67.60;;;;;;9180246;19;20019;-62
2023/03/17 07:12:53;;;;;;;6.95;2.38;;;8.90;67.60;;;;;;9178380;19;19930;-62
2023/03/17 07:15:59;;;;;;;4.60;2.42;;;8.90;67.50;;;;;;9182290;19;20019;-63
2023/03/17 07:19:06;;;;;;;4.20;2.13;;;9.00;67.50;;;;;;9182242;19;20018;-62
2023/03/17 07:22:10;;;;;;;;;;;9.10;67.50;;;;;;9182654;19;20356;-63
2023/03/17 07:25:16;;;;;;;3.05;2.03;;;9.20;67.60;;;;;;9182228;19;19918;-62
2023/03/17 07:28:20;;;;;;;7.30;2.40;;;9.30;67.50;;;;;;9181819;19;20011;-63
2023/03/17 07:31:28;;;;;;;4.28;2.22;;;9.40;67.60;;;;;;9180920;19;20010;-63
2023/03/17 07:34:33;;;;;;;4.13;2.88;;;9.50;67.50;;;;;;9179805;19;20014;-63
2023/03/17 07:37:39;;;;;;;3.45;1.98;;;9.60;67.50;;;;;;9179799;19;20074;-63
2023/03/17 07:40:43;;;;;;;6.22;1.95;;;9.60;67.40;;;;;;9181844;19;20018;-63
2023/03/17 07:43:49;;;;;;;6.20;2.03;;;9.80;67.40;;;;;;9181116;19;20359;-63
2023/03/17 07:46:56;;;;;;;5.63;2.15;;;9.90;67.50;;;;;;9180899;19;20025;-63
2023/03/17 07:50:02;;;;;;;4.85;2.30;;;10.00;67.50;;;;;;9181209;19;20471;-63
2023/03/17 07:53:06;;;;;;;;;;;10.00;67.40;;;;;;9178104;19;20011;-63
2023/03/17 07:56:12;;;;;;;7.97;3.05;;;10.10;67.40;;;;;;9179636;19;19922;-63
2023/03/17 07:59:17;;;;;;;7.90;2.22;;;10.20;67.30;;;;;;9175604;19;20077;-63
2023/03/17 08:02:25;;;;;;;6.60;2.40;;;10.30;67.30;;;;;;9180392;19;20022;-63
2023/03/17 08:05:29;;;;;;;6.80;2.10;;;10.40;67.30;;;;;;9180188;19;20014;-63
2023/03/17 08:08:35;;;;;;;7.05;2.05;;;10.50;67.20;;;;;;9179070;19;20022;-63
2023/03/17 08:11:40;;;;;;;;;;;10.60;67.20;;;;;;9177516;19;20015;-63
2023/03/17 08:14:45;;;;;;;4.18;1.98;;;10.70;67.30;;;;;;9179834;19;19919;-63
2023/03/17 08:17:52;;;;;;;6.47;3.00;;;10.70;67.20;;;;;;9180290;19;20018;-63
2023/03/17 08:20:58;;;;;;;4.07;2.28;;;10.80;67.20;;;;;;9179483;19;20022;-63
2023/03/17 08:24:04;;;;;;;7.45;2.90;;;11.00;67.20;;;;;;9180026;19;20054;-63
2023/03/17 08:27:10;;;;;;;9.20;2.22;;;11.00;67.10;;;;;;9177997;19;20018;-63
2023/03/17 08:30:15;;;;;;;4.90;2.70;;;11.10;67.10;;;;;;9178578;19;20403;-63
2023/03/17 08:33:23;;;;;;;4.03;2.17;;;11.20;67.00;;;;;;9177514;19;20022;-63
2023/03/17 08:36:27;;;;;;;5.80;2.38;;;11.40;67.00;;;;;;9179069;19;20356;-63
2023/03/17 08:39:34;;;;;;;6.47;2.92;;;11.50;67.00;;;;;;9179036;19;20018;-63
2023/03/17 08:42:38;;;;;;;8.48;2.70;;;11.60;66.90;;;;;;9175098;19;20018;-63
2023/03/17 08:45:44;;;;;;;5.38;2.20;;;11.70;66.90;;;;;;9175242;19;20475;-63
2023/03/17 08:48:50;;;;;;;;;;;11.80;66.80;;;;;;9169993;19;20043;-63
2023/03/17 08:51:56;;;;;;;11.00;2.33;;;11.90;66.80;;;;;;9176356;19;19922;-63
2023/03/17 08:55:00;;;;;;;;;;;12.00;66.80;;;;;;9178701;19;20085;-63
2023/03/17 08:58:06;;;;;;;6.85;2.83;;;12.10;66.80;;;;;;9172019;19;19914;-62
2023/03/17 09:01:11;;;;;;;5.68;2.33;;;12.20;66.80;;;;;;9177879;19;20042;-63
2023/03/17 09:04:19;;;;;;;4.25;2.25;;;12.30;66.80;;;;;;9175587;19;20021;-63
2023/03/17 09:07:23;;;;;;;5.20;2.42;;;12.50;66.70;;;;;;9173587;19;20082;-62
2023/03/17 09:10:29;;;;;;;5.55;2.50;;;12.60;66.60;;;;;;9177493;19;20013;-62
2023/03/17 09:13:36;;;;;;;5.72;2.20;;;12.80;66.60;;;;;;9176826;19;20020;-63
2023/03/17 09:16:41;;;;;;;12.32;2.63;;;12.90;66.50;;;;;;9177588;19;21382;-63
2023/03/17 09:19:48;;;;;;;6.00;2.22;;;13.10;66.60;;;;;;9177211;19;20030;-63
2023/03/17 09:22:55;;;;;;;5.75;2.25;;;13.30;66.50;;;;;;9176686;19;20021;-63
2023/03/17 09:25:59;;;;;;;8.85;2.72;;;13.50;66.50;;;;;;9177748;19;20011;-63
2023/03/17 09:29:06;;;;;;;7.55;2.28;;;13.70;66.30;;;;;;9176886;19;20014;-63
2023/03/17 09:32:10;;;;;;;6.45;2.30;;;13.90;66.10;;;;;;9172586;19;20010;-63
2023/03/17 09:35:18;;;;;;;5.82;2.33;;;14.10;66.00;;;;;;9176972;19;20010;-63
2023/03/17 09:38:22;;;;;;;7.05;2.65;;;14.40;65.90;;;;;;9177215;19;20011;-63
2023/03/17 09:41:49;;;;;;;6.20;2.70;;;14.60;65.80;;;;;;9177128;19;20506;-69
2023/03/17 09:45:05;;;;;;;10.35;2.42;;;14.80;65.50;;;;;;9176378;19;20021;-69
2023/03/17 09:48:31;;;;;;;4.60;2.45;;;15.00;65.30;;;;;;9176836;19;20017;-69
2023/03/17 09:51:37;;;;;;;6.97;2.13;;;15.20;65.20;;;;;;9166565;19;20031;-69
2023/03/17 09:54:45;;;;;;;10.05;2.80;;;15.30;65.20;;;;;;9169381;19;20562;-69
2023/03/17 09:57:52;;;;;;;5.72;2.38;;;15.50;65.10;;;;;;9172035;19;20048;-69
2023/03/17 10:00:59;;;;;;;6.93;2.85;;;15.70;64.90;;;;;;9175694;19;20018;-69
2023/03/17 10:04:03;;;;;;;5.30;2.40;;;15.80;64.70;;;;;;9174090;19;20026;-69
2023/03/17 10:07:17;;;;;;;6.43;2.40;;;16.00;64.70;;;;;;9176422;19;20029;-69
2023/03/17 10:10:29;;;;;;;7.95;2.80;;;16.10;64.40;;;;;;9176855;19;20018;-69
2023/03/17 10:13:49;;;;;;;5.13;2.50;;;16.20;64.30;;;;;;9181352;19;20337;-69
2023/03/17 10:16:57;;;;;;;6.47;2.72;;;16.40;64.10;;;;;;9183227;19;20019;-69
2023/03/17 10:20:10;;;;;;;11.35;2.30;;;16.50;64.10;;;;;;9182637;19;20592;-69
2023/03/17 10:23:21;;;;;;;5.97;2.45;;;16.60;63.90;;;;;;9181807;19;20031;-69
2023/03/17 10:26:32;;;;;;;7.63;2.80;;;16.70;63.70;;;;;;9183854;19;20022;-69
2023/03/17 10:29:36;;;;;;;4.65;2.30;;;16.80;63.50;;;;;;9183698;19;20018;-69
2023/03/17 10:32:42;;;;;;;11.32;3.08;;;16.90;63.50;;;;;;9182252;19;20010;-69
2023/03/17 10:35:47;;;;;;;5.45;2.60;;;16.90;63.30;;;;;;9185306;19;20051;-69
2023/03/17 10:38:55;;;;;;;6.03;2.70;;;17.00;63.20;;;;;;9183397;19;20010;-69
2023/03/17 10:42:08;;;;;;;3.92;2.28;;;17.00;63.00;;;;;;9182057;19;20007;-68
2023/03/17 10:45:24;;;;;;;4.72;2.35;;;17.10;62.90;;;;;;9180385;19;20353;-69
2023/03/17 10:48:31;;;;;;;7.07;2.58;;;17.10;62.80;;;;;;9181104;19;20074;-69
2023/03/17 10:51:39;;;;;;;5.47;2.83;;;17.10;63.30;;;;;;9181854;19;20023;-69
2023/03/17 10:54:50;;;;;;;10.10;3.17;;;17.10;62.60;;;;;;9181635;19;20092;-68
2023/03/17 10:58:03;;;;;;;8.45;2.70;;;17.10;62.40;;;;;;9174252;19;20356;-69
2023/03/17 11:01:08;;;;;;;9.60;2.50;;;17.20;62.40;;;;;;9181137;19;20014;-69
2023/03/17 11:04:27;;;;;;;5.50;2.47;;;17.20;62.40;;;;;;9182580;19;20011;-68
2023/03/17 11:07:37;;;;;;;8.48;2.63;;;17.10;62.10;;;;;;9177645;19;20368;-68
2023/03/17 11:10:45;;;;;;;8.30;2.85;;;17.20;62.20;;;;;;9180862;19;20014;-68
2023/03/17 11:13:49;;;;;;;7.85;2.45;;;17.20;62.20;;;;;;9176479;19;20015;-68
2023/03/17 11:16:57;;;;;;;5.90;2.53;;;17.20;62.10;;;;;;9180303;19;20015;-68
2023/03/17 11:20:21;;;;;;;7.72;3.63;;;17.20;62.00;;;;;;9180290;19;20018;-67
2023/03/17 11:23:48;;;;;;;7.00;3.17;;;17.20;61.90;;;;;;9171435;19;20011;-68
2023/03/17 11:27:01;;;;;;;6.75;2.55;;;17.30;61.80;;;;;;9175278;19;20014;-67
2023/03/17 11:30:17;;;;;;;11.23;3.10;;;17.30;61.80;;;;;;9173094;19;20025;-68
2023/03/17 11:33:34;;;;;;;5.47;2.90;;;17.30;61.70;;;;;;9172142;19;20031;-67
2023/03/17 11:36:48;;;;;;;10.32;3.40;;;17.30;61.70;;;;;;9173260;19;20022;-68
2023/03/17 11:39:57;;;;;;;7.68;3.63;;;17.40;61.80;;;;;;9176119;19;20356;-68
2023/03/17 11:43:23;;;;;;;7.30;3.08;;;17.40;61.80;;;;;;9179343;19;20025;-68
2023/03/17 11:46:32;;;;;;;11.68;3.45;;;17.40;61.40;;;;;;9179963;19;20029;-67
2023/03/17 11:49:40;;;;;;;9.95;4.20;;;17.50;61.60;;;;;;9180887;19;20033;-68
2023/03/17 11:52:55;;;;;;;8.00;3.38;;;17.40;61.60;;;;;;9178688;19;20014;-67
2023/03/17 11:56:04;;;;;;;6.22;3.00;;;17.50;61.40;;;;;;9177524;19;20018;-68
2023/03/17 11:59:20;;;;;;;7.00;3.55;;;17.50;61.50;;;;;;9166450;19;20023;-67
2023/03/17 12:02:31;;;;;;;8.23;3.42;;;17.50;61.30;;;;;;9173573;19;20006;-68
2023/03/17 12:05:37;;;;;;;9.10;4.05;;;17.50;61.30;;;;;;9172923;19;20041;-69
2023/03/17 12:08:46;;;;;;;11.20;3.30;;;17.60;61.40;;;;;;9171430;19;20026;-68
2023/03/17 12:11:51;;;;;;;6.43;3.40;;;17.60;61.40;;;;;;9170474;19;20013;-68
2023/03/17 12:15:01;;;;;;;11.48;3.88;;;17.60;61.40;;;;;;9172634;19;20475;-65
2023/03/17 12:18:12;;;;;;;11.07;3.10;;;17.60;61.30;;;;;;9171651;19;20011;-64
2023/03/17 12:21:25;;;;;;;9.57;3.70;;;17.70;61.30;;;;;;9171621;19;20025;-63
2023/03/17 12:24:35;;;;;;;6.22;3.22;;;17.70;61.20;;;;;;9171903;19;20519;-63
2023/03/17 12:27:47;;;;;;;6.40;2.97;;;17.70;61.10;;;;;;9170226;19;20019;-64
2023/03/17 12:30:56;;;;;;;10.80;3.75;;;17.80;61.10;;;;;;9164770;19;20094;-64
2023/03/17 12:34:07;;;;;;;10.75;3.55;;;17.80;61.10;;;;;;9161645;19;20531;-64
2023/03/17 12:37:11;;;;;;;8.50;3.33;;;17.80;60.90;;;;;;9164299;19;20430;-65
2023/03/17 12:40:23;;;;;;;6.38;3.50;;;17.90;61.00;;;;;;9164962;19;20025;-64
2023/03/17 12:43:47;;;;;;;7.40;3.55;;;17.90;60.90;;;;;;9162744;19;20014;-67
2023/03/17 12:47:29;;;;;;;11.50;3.58;;;17.90;60.50;;;;;;9164244;19;20015;-64
2023/03/17 12:50:45;;;;;;;7.35;3.28;;;17.90;60.50;;;;;;9164260;19;20475;-64
2023/03/17 12:53:51;;;;;;;8.25;3.17;;;18.00;60.80;;;;;;9161535;19;20388;-64
2023/03/17 12:57:03;;;;;;;7.70;3.58;;;18.00;60.80;;;;;;9163473;19;20021;-64
2023/03/17 13:00:21;;;;;;;9.30;4.10;;;18.00;60.60;;;;;;9163317;19;20018;-64
2023/03/17 13:03:32;;;;;;;10.45;4.00;;;18.00;60.60;;;;;;9162718;19;20479;-65
2023/03/17 13:06:43;;;;;;;11.30;4.07;;;18.00;60.60;;;;;;9163161;19;20582;-64
2023/03/17 13:09:51;;;;;;;7.47;3.45;;;18.00;60.60;;;;;;9160628;19;20037;-64
2023/03/17 13:13:07;;;;;;;10.15;4.10;;;18.10;60.60;;;;;;9160398;19;20593;-64
2023/03/17 13:16:28;;;;;;;9.75;3.38;;;18.10;60.60;;;;;;9164105;19;20040;-64
2023/03/17 13:19:47;;;;;;;15.65;4.45;;;18.20;60.40;;;;;;9162926;19;20014;-64
2023/03/17 13:23:13;;;;;;;9.30;3.53;;;18.20;60.60;;;;;;9163353;19;20010;-64
2023/03/17 13:26:21;;;;;;;7.97;3.38;;;18.30;60.40;;;;;;9163063;19;20011;-64
2023/03/17 13:29:38;;;;;;;11.43;4.22;;;18.30;60.50;;;;;;9168980;19;20047;-64
2023/03/17 13:32:45;;;;;;;11.13;3.88;;;18.30;60.40;;;;;;9165785;19;20598;-61
2023/03/17 13:35:59;;;;;;;10.10;4.22;;;18.40;60.40;;;;;;9168257;19;20380;-66
2023/03/17 13:39:44;;;;;;;7.75;3.47;;;18.50;60.20;;;;;;9169701;19;20017;-67
2023/03/17 13:43:04;;;;;;;9.25;3.90;;;18.50;60.00;;;;;;9169671;19;20006;-67
2023/03/17 13:46:23;;;;;;;11.68;4.80;;;18.60;60.10;;;;;;9168611;19;20018;-67
2023/03/17 13:49:31;;;;;;;7.40;3.60;;;18.60;60.00;;;;;;9167693;19;20404;-67
2023/03/17 13:52:47;;;;;;;7.88;3.40;;;18.60;60.00;;;;;;9167690;19;20348;-68
2023/03/17 13:56:18;;;;;;;8.70;3.80;;;18.60;59.80;;;;;;9168832;19;20045;-68
2023/03/17 13:59:36;;;;;;;9.70;4.18;;;18.70;59.80;;;;;;9162415;19;20014;-68
2023/03/17 14:02:41;;;;;;;7.25;3.65;;;18.70;59.80;;;;;;9169328;19;20413;-67
2023/03/17 14:05:50;;;;;;;10.73;4.65;;;18.70;59.90;;;;;;9170122;19;20087;-68
2023/03/17 14:09:01;;;;;;;9.85;3.72;;;18.80;59.90;;;;;;9167558;19;20021;-67
2023/03/17 14:12:16;;;;;;;6.97;3.63;;;18.80;59.70;;;;;;9164746;19;20011;-67
2023/03/17 14:15:26;;;;;;;8.40;4.03;;;18.80;59.80;;;;;;9170081;19;20474;-67
2023/03/17 14:18:34;;;;;;;9.85;4.32;;;18.80;59.80;;;;;;9166538;19;20026;-67
2023/03/17 14:21:39;;;;;;;12.02;4.47;;;18.80;59.80;;;;;;9166150;19;20024;-67
2023/03/17 14:24:51;;;;;;;10.98;4.53;;;18.80;59.80;;;;;;9166962;19;20022;-67
2023/03/17 14:27:58;;;;;;;13.27;4.28;;;18.80;59.70;;;;;;9166759;19;20030;-62
2023/03/17 14:31:06;;;;;;;9.93;4.05;;;18.70;59.70;;;;;;9167970;19;20026;-62
2023/03/17 14:34:15;;;;;;;11.07;4.40;;;18.80;59.70;;;;;;9163507;19;20011;-63
2023/03/17 14:37:21;;;;;;;10.27;4.55;;;18.70;59.70;;;;;;9167841;19;20026;-62
2023/03/17 14:40:31;;;;;;;10.55;4.50;;;18.70;59.70;;;;;;9167776;19;20524;-63
2023/03/17 14:43:38;;;;;;;13.43;4.22;;;18.70;59.70;;;;;;9172206;19;20045;-63
2023/03/17 14:46:42;;;;;;;14.82;4.00;;;18.80;59.70;;;;;;9174513;19;20363;-63
2023/03/17 14:49:49;;;;;;;8.23;4.40;;;18.80;59.80;;;;;;9174950;19;20022;-63
2023/03/17 14:52:54;;;;;;;12.00;4.00;;;18.70;59.70;;;;;;9172405;19;20515;-63
2023/03/17 14:56:03;;;;;;;7.20;4.50;;;18.70;59.70;;;;;;9174109;19;20025;-63
2023/03/17 14:59:09;;;;;;;9.88;3.90;;;18.70;59.70;;;;;;9169418;19;20114;-62
2023/03/17 15:02:23;;;;;;;9.75;4.38;;;18.70;59.70;;;;;;9175742;19;20086;-63
2023/03/17 15:05:37;;;;;;;9.15;4.00;;;18.70;59.60;;;;;;9174983;19;20029;-63
2023/03/17 15:08:46;;;;;;;12.23;5.13;;;18.70;59.70;;;;;;9173768;19;20010;-62
2023/03/17 15:11:55;;;;;;;12.38;4.30;;;18.70;59.70;;;;;;9171707;19;20032;-63
2023/03/17 15:15:06;;;;;;;13.90;4.97;;;18.70;59.70;;;;;;9173272;19;20014;-63
2023/03/17 15:18:14;;;;;;;12.65;4.68;;;18.60;59.70;;;;;;9174674;19;20017;-63
2023/03/17 15:21:33;;;;;;;11.00;5.13;;;18.60;59.60;;;;;;9165750;19;20023;-63
2023/03/17 15:24:42;;;;;;;9.98;5.22;;;18.60;59.60;;;;;;9172121;19;20015;-63
2023/03/17 15:27:50;;;;;;;13.70;4.78;;;18.60;59.70;;;;;;9174234;19;20025;-64
2023/03/17 15:31:00;;;;;;;11.20;5.18;;;18.50;59.70;;;;;;9173844;19;20014;-63
2023/03/17 15:34:06;;;;;;;10.65;4.85;;;18.50;59.60;;;;;;9170139;19;20459;-63
2023/03/17 15:37:17;;;;;;;;;;;18.50;59.60;;;;;;9174745;19;20025;-63
2023/03/17 15:40:23;;;;;;;7.57;3.92;;;18.40;59.80;;;;;;9171626;19;20272;-63
2023/03/17 15:43:30;;;;;;;11.43;4.93;;;18.40;59.90;;;;;;9172127;19;20014;-63
2023/03/17 15:46:36;;;;;;;11.02;5.35;;;18.40;59.80;;;;;;9172730;19;20022;-63
2023/03/17 15:49:40;;;;;;;12.07;5.05;;;18.30;59.80;;;;;;9171396;19;20029;-63
2023/03/17 15:52:48;;;;;;;11.70;6.43;;;18.20;59.70;;;;;;9170005;19;20025;-64
2023/03/17 15:55:56;;;;;;;13.85;6.28;;;18.20;59.70;;;;;;9173854;19;20015;-63
2023/03/17 15:59:04;;;;;;;9.35;4.65;;;18.20;59.80;;;;;;9167185;19;20014;-63
2023/03/17 16:02:26;;;;;;;10.07;4.50;;;18.10;59.80;;;;;;9172973;19;20019;-64
2023/03/17 16:05:35;;;;;;;8.73;4.70;;;18.10;59.60;;;;;;9172718;19;20476;-63
2023/03/17 16:08:38;;;;;;;8.98;4.90;;;18.00;59.80;;;;;;9171318;19;20046;-63
2023/03/17 16:11:45;;;;;;;12.18;5.15;;;18.00;59.90;;;;;;9172269;19;20010;-64
2023/03/17 16:14:51;;;;;;;15.70;6.65;;;18.00;59.90;;;;;;9172682;19;20014;-63
2023/03/17 16:18:01;;;;;;;14.38;7.65;;;17.90;59.90;;;;;;9173916;19;20021;-64
2023/03/17 16:21:07;;;;;;;15.63;6.47;;;17.80;59.90;;;;;;9173444;19;20014;-63
2023/03/17 16:24:20;;;;;;;12.88;5.45;;;17.80;59.90;;;;;;9173257;19;20364;-63
2023/03/17 16:27:24;;;;;;;10.38;5.10;;;17.80;59.90;;;;;;9172822;19;20425;-64